createdAt,value
2022-10-31T00:01:18.948Z,100.00
2022-10-31T00:03:45.503Z,100.00
2022-10-31T00:06:12.203Z,100.00
2022-10-31T00:08:38.724Z,100.00
2022-10-31T00:11:09.148Z,100.00
2022-10-31T00:13:35.801Z,100.00
2022-10-31T00:16:02.333Z,100.00
2022-10-31T00:18:28.849Z,100.00
2022-10-31T00:21:03.377Z,100.00
2022-10-31T00:23:30.068Z,100.00
2022-10-31T00:26:02.723Z,100.00
2022-10-31T00:28:31.347Z,100.00
2022-10-31T00:31:06.603Z,100.00
2022-10-31T00:33:35.808Z,100.00
2022-10-31T00:36:02.399Z,100.00
2022-10-31T00:38:28.983Z,100.00
2022-10-31T00:40:55.551Z,100.00
2022-10-31T00:43:22.144Z,100.00
2022-10-31T00:45:48.716Z,100.00
2022-10-31T00:48:15.447Z,100.00
2022-10-31T00:50:42.527Z,100.00
2022-10-31T00:53:09.459Z,100.00
2022-10-31T00:55:36.172Z,100.00
2022-10-31T00:58:03.179Z,100.00
2022-10-31T01:00:30.159Z,100.00
2022-10-31T01:02:57.048Z,99.98
2022-10-31T01:05:24.586Z,99.91
2022-10-31T01:07:51.288Z,99.20
2022-10-31T01:10:19.423Z,99.92
2022-10-31T01:12:48.791Z,100.00
2022-10-31T01:15:21.029Z,100.00
2022-10-31T01:17:48.689Z,100.00
2022-10-31T01:20:16.705Z,100.00
2022-10-31T01:22:43.244Z,100.00
2022-10-31T01:25:10.600Z,100.00
2022-10-31T01:27:37.121Z,100.00
2022-10-31T01:30:05.184Z,100.00
2022-10-31T01:32:31.829Z,100.00
2022-10-31T01:34:58.361Z,100.00
2022-10-31T01:37:24.949Z,100.00
2022-10-31T01:39:51.433Z,100.00
2022-10-31T01:42:20.699Z,100.00
2022-10-31T01:45:01.950Z,100.00
2022-10-31T01:47:36.807Z,100.00
2022-10-31T01:50:10.814Z,100.00
2022-10-31T01:52:41.574Z,100.00
2022-10-31T01:55:16.467Z,100.00
2022-10-31T01:57:46.254Z,100.00
2022-10-31T02:00:13.504Z,100.00
2022-10-31T02:02:41.205Z,100.00
2022-10-31T02:05:13.364Z,99.94
2022-10-31T02:08:01.181Z,99.73
2022-10-31T02:10:28.592Z,100.00
2022-10-31T02:12:58.155Z,99.46
2022-10-31T02:15:25.623Z,100.00
2022-10-31T02:17:52.768Z,99.78
2022-10-31T02:20:23.197Z,99.98
2022-10-31T02:22:49.731Z,99.79
2022-10-31T02:25:41.454Z,99.83
2022-10-31T02:30:57.340Z,99.56
2022-10-31T02:33:37.008Z,100.00
2022-10-31T02:36:19.513Z,100.00
2022-10-31T02:39:09.692Z,99.06
2022-10-31T02:42:03.768Z,100.00
2022-10-31T02:44:52.817Z,99.48
2022-10-31T02:47:28.471Z,100.00
2022-10-31T02:50:00.843Z,100.00
2022-10-31T02:52:32.806Z,100.00
2022-10-31T02:55:00.096Z,100.00
2022-10-31T02:57:31.023Z,100.00
2022-10-31T03:00:04.708Z,100.00
2022-10-31T03:03:05.357Z,100.00
2022-10-31T03:06:16.637Z,100.00
2022-10-31T03:08:55.856Z,100.00
2022-10-31T03:11:29.141Z,100.00
2022-10-31T03:14:07.872Z,100.00
2022-10-31T03:16:49.405Z,100.00
2022-10-31T03:19:21.794Z,100.00
2022-10-31T03:22:07.709Z,100.00
2022-10-31T03:24:38.629Z,100.00
2022-10-31T03:27:09.587Z,100.00
2022-10-31T03:29:38.256Z,100.00
2022-10-31T03:32:11.920Z,100.00
2022-10-31T03:34:40.076Z,99.67
2022-10-31T03:37:09.938Z,100.00
2022-10-31T03:39:40.009Z,99.99
2022-10-31T03:42:12.236Z,99.10
2022-10-31T03:44:42.016Z,99.69
2022-10-31T03:47:08.607Z,100.00
2022-10-31T03:49:36.290Z,99.83
2022-10-31T03:52:21.732Z,99.62
2022-10-31T03:54:56.115Z,100.00
2022-10-31T03:57:28.997Z,99.78
2022-10-31T04:00:02.674Z,99.71
2022-10-31T04:02:33.349Z,99.75
2022-10-31T04:05:01.262Z,99.57
2022-10-31T04:07:36.062Z,100.00
2022-10-31T04:10:08.873Z,99.87
2022-10-31T04:12:37.037Z,99.41
2022-10-31T04:15:06.887Z,99.52
2022-10-31T04:17:38.880Z,99.67
2022-10-31T04:20:06.257Z,100.00
2022-10-31T04:22:32.855Z,100.00
2022-10-31T04:24:59.510Z,100.00
2022-10-31T04:27:26.057Z,100.00
2022-10-31T04:29:52.626Z,100.00
2022-10-31T04:32:19.329Z,100.00
2022-10-31T04:34:45.816Z,99.20
2022-10-31T04:37:12.389Z,99.75
2022-10-31T04:39:38.975Z,99.95
2022-10-31T04:42:05.525Z,100.00
2022-10-31T04:44:32.016Z,99.92
2022-10-31T04:46:58.585Z,99.46
2022-10-31T04:49:25.110Z,99.80
2022-10-31T04:51:51.625Z,100.00
2022-10-31T04:54:18.724Z,100.00
2022-10-31T04:56:45.232Z,99.83
2022-10-31T04:59:11.760Z,99.58
2022-10-31T05:01:38.503Z,99.25
2022-10-31T05:04:05.118Z,99.68
2022-10-31T05:06:31.598Z,99.83
2022-10-31T05:08:58.126Z,98.74
2022-10-31T05:11:24.673Z,99.27
2022-10-31T05:13:51.156Z,100.00
2022-10-31T05:16:17.820Z,99.57
2022-10-31T05:18:44.309Z,100.00
2022-10-31T05:21:10.936Z,99.88
2022-10-31T05:23:37.782Z,99.85
2022-10-31T05:26:04.409Z,99.77
2022-10-31T05:28:30.974Z,99.71
2022-10-31T05:30:57.887Z,99.64
2022-10-31T05:33:24.480Z,99.67
2022-10-31T05:35:50.977Z,100.00
2022-10-31T05:38:17.576Z,99.43
2022-10-31T05:40:44.177Z,100.00
2022-10-31T05:43:10.704Z,99.56
2022-10-31T05:45:37.319Z,99.78
2022-10-31T05:48:04.682Z,99.92
2022-10-31T05:50:32.589Z,99.75
2022-10-31T05:53:04.851Z,100.00
2022-10-31T05:55:32.045Z,99.66
2022-10-31T05:57:59.144Z,99.40
2022-10-31T06:00:28.845Z,99.58
2022-10-31T06:03:03.333Z,99.72
2022-10-31T06:05:31.141Z,99.61
2022-10-31T06:07:58.864Z,99.87
2022-10-31T06:10:26.107Z,99.87
2022-10-31T06:12:52.765Z,99.57
2022-10-31T06:15:23.689Z,99.19
2022-10-31T06:18:03.162Z,99.27
2022-10-31T06:20:30.058Z,99.53
2022-10-31T06:22:56.684Z,99.25
2022-10-31T06:25:23.437Z,99.68
2022-10-31T06:27:49.988Z,99.16
2022-10-31T06:30:16.573Z,99.36
2022-10-31T06:32:43.180Z,98.69
2022-10-31T06:35:10.121Z,99.15
2022-10-31T06:37:36.762Z,99.78
2022-10-31T06:40:03.769Z,99.71
2022-10-31T06:42:30.269Z,98.91
2022-10-31T06:44:56.743Z,98.71
2022-10-31T06:47:23.553Z,97.88
2022-10-31T06:49:50.052Z,98.41
2022-10-31T06:52:16.812Z,98.43
2022-10-31T06:54:43.460Z,98.67
2022-10-31T06:57:09.968Z,98.80
2022-10-31T06:59:36.488Z,98.65
2022-10-31T07:02:03.288Z,98.57
2022-10-31T07:04:29.896Z,98.45
2022-10-31T07:06:56.371Z,98.14
2022-10-31T07:09:23.028Z,98.26
2022-10-31T07:11:49.544Z,98.21
2022-10-31T07:14:16.094Z,97.88
2022-10-31T07:16:42.659Z,97.31
2022-10-31T07:19:09.141Z,97.53
2022-10-31T07:21:35.691Z,97.01
2022-10-31T07:24:02.260Z,97.20
2022-10-31T07:26:28.935Z,96.35
2022-10-31T07:28:55.428Z,96.04
2022-10-31T07:31:22.155Z,95.74
2022-10-31T07:33:48.820Z,96.37
2022-10-31T07:36:15.340Z,96.19
2022-10-31T07:38:42.084Z,95.42
2022-10-31T07:41:08.732Z,95.06
2022-10-31T07:43:35.305Z,95.02
2022-10-31T07:46:01.910Z,94.99
2022-10-31T07:48:28.413Z,93.99
2022-10-31T07:50:56.313Z,93.94
2022-10-31T07:53:22.828Z,93.20
2022-10-31T07:55:49.397Z,93.86
2022-10-31T07:58:17.831Z,93.44
2022-10-31T08:00:46.934Z,93.30
2022-10-31T08:03:16.160Z,93.17
2022-10-31T08:05:43.485Z,92.16
2022-10-31T08:08:10.405Z,91.68
2022-10-31T08:10:37.620Z,90.87
2022-10-31T08:13:08.151Z,88.12
2022-10-31T08:15:38.309Z,89.20
2022-10-31T08:18:05.594Z,89.84
2022-10-31T08:20:32.204Z,91.41
2022-10-31T08:23:03.318Z,91.81
2022-10-31T08:25:35.336Z,91.78
2022-10-31T08:28:06.555Z,91.65
2022-10-31T08:30:35.566Z,91.64
2022-10-31T08:33:17.916Z,91.92
2022-10-31T08:35:45.153Z,90.43
2022-10-31T08:38:13.201Z,88.97
2022-10-31T08:40:40.252Z,90.05
2022-10-31T08:43:12.227Z,90.49
2022-10-31T08:45:39.083Z,89.24
2022-10-31T08:48:07.593Z,89.77
2022-10-31T08:50:36.356Z,88.55
2022-10-31T08:53:08.060Z,88.84
2022-10-31T08:55:39.072Z,88.43
2022-10-31T08:58:07.846Z,88.33
2022-10-31T09:00:35.409Z,85.78
2022-10-31T09:03:07.812Z,84.86
2022-10-31T09:05:34.370Z,85.39
2022-10-31T09:08:03.058Z,85.56
2022-10-31T09:10:31.513Z,83.34
2022-10-31T09:13:03.224Z,82.04
2022-10-31T09:15:29.947Z,83.60
2022-10-31T09:17:56.533Z,83.16
2022-10-31T09:20:23.829Z,83.15
2022-10-31T09:23:00.820Z,82.35
2022-10-31T09:25:28.488Z,81.02
2022-10-31T09:28:00.145Z,83.92
2022-10-31T09:30:28.993Z,81.38
2022-10-31T09:32:59.970Z,79.87
2022-10-31T09:35:27.495Z,79.68
2022-10-31T09:37:58.049Z,79.08
2022-10-31T09:40:32.639Z,81.35
2022-10-31T09:43:13.940Z,78.57
2022-10-31T09:45:50.604Z,78.66
2022-10-31T09:48:44.631Z,79.38
2022-10-31T09:51:17.305Z,78.88
2022-10-31T09:53:48.068Z,77.19
2022-10-31T09:56:18.885Z,77.78
2022-10-31T09:58:59.496Z,78.46
2022-10-31T10:01:54.534Z,79.05
2022-10-31T10:04:42.995Z,77.10
2022-10-31T10:07:17.937Z,76.28
2022-10-31T10:09:45.872Z,76.64
2022-10-31T10:12:20.766Z,75.64
2022-10-31T10:15:19.816Z,74.62
2022-10-31T10:17:46.241Z,76.09
2022-10-31T10:20:24.498Z,74.39
2022-10-31T10:23:00.442Z,73.50
2022-10-31T10:25:40.651Z,71.81
2022-10-31T10:28:28.430Z,71.83
2022-10-31T10:31:04.812Z,74.46
2022-10-31T10:33:40.164Z,71.45
2022-10-31T10:36:13.445Z,70.37
2022-10-31T10:39:00.540Z,70.58
2022-10-31T10:41:34.531Z,70.97
2022-10-31T10:44:01.302Z,73.62
2022-10-31T10:47:07.958Z,72.72
2022-10-31T10:49:53.173Z,71.63
2022-10-31T10:55:24.392Z,72.18
2022-10-31T10:57:58.393Z,68.91
2022-10-31T11:00:32.116Z,68.93
2022-10-31T11:02:59.244Z,68.74
2022-10-31T11:05:29.537Z,69.87
2022-10-31T11:07:56.123Z,71.01
2022-10-31T11:10:23.169Z,68.29
2022-10-31T11:13:24.480Z,69.23
2022-10-31T11:16:13.355Z,68.72
2022-10-31T11:18:46.367Z,67.93
2022-10-31T11:21:23.256Z,64.86
2022-10-31T11:23:49.767Z,65.45
2022-10-31T11:26:22.406Z,65.68
2022-10-31T11:28:59.734Z,67.02
2022-10-31T11:31:28.028Z,65.80
2022-10-31T11:34:03.673Z,66.07
2022-10-31T11:36:43.204Z,67.80
2022-10-31T11:39:18.675Z,68.71
2022-10-31T11:41:46.269Z,68.68
2022-10-31T11:44:29.326Z,68.86
2022-10-31T11:47:04.359Z,67.91
2022-10-31T11:49:39.647Z,66.79
2022-10-31T11:52:25.392Z,67.49
2022-10-31T11:55:03.223Z,68.18
2022-10-31T11:57:43.104Z,67.86
2022-10-31T12:00:30.874Z,68.28
2022-10-31T12:03:34.578Z,67.43
2022-10-31T12:06:06.500Z,68.04
2022-10-31T12:08:36.880Z,68.88
2022-10-31T12:11:36.685Z,68.38
2022-10-31T12:14:24.809Z,69.83
2022-10-31T12:17:17.209Z,71.05
2022-10-31T12:19:57.623Z,70.41
2022-10-31T12:22:52.967Z,69.21
2022-10-31T12:25:25.476Z,68.70
2022-10-31T12:28:06.516Z,68.11
2022-10-31T12:30:58.703Z,68.17
2022-10-31T12:34:02.822Z,68.13
2022-10-31T12:37:01.141Z,69.15
2022-10-31T12:40:15.656Z,68.65
2022-10-31T12:43:18.981Z,68.25
2022-10-31T12:45:59.876Z,69.75
2022-10-31T12:48:38.401Z,69.03
2022-10-31T12:51:10.917Z,70.94
2022-10-31T12:53:55.106Z,70.19
2022-10-31T12:56:48.468Z,69.75
2022-10-31T12:59:30.223Z,69.72
2022-10-31T13:02:00.006Z,69.46
2022-10-31T13:04:52.236Z,70.08
2022-10-31T13:07:58.622Z,71.66
2022-10-31T13:10:48.956Z,71.02
2022-10-31T13:13:25.721Z,69.44
2022-10-31T13:15:57.689Z,70.55
2022-10-31T13:18:30.516Z,70.59
2022-10-31T13:21:00.170Z,71.66
2022-10-31T13:23:51.766Z,71.62
2022-10-31T13:26:37.758Z,72.04
2022-10-31T13:29:24.806Z,71.70
2022-10-31T13:31:53.832Z,72.04
2022-10-31T13:34:36.416Z,71.78
2022-10-31T13:37:15.210Z,73.43
2022-10-31T13:39:52.831Z,73.42
2022-10-31T13:42:51.726Z,73.31
2022-10-31T13:45:21.622Z,72.54
2022-10-31T13:48:16.078Z,72.92
2022-10-31T13:50:44.541Z,73.29
2022-10-31T13:53:23.195Z,74.45
2022-10-31T13:56:03.617Z,74.19
2022-10-31T13:58:32.605Z,73.90
2022-10-31T14:01:11.875Z,73.86
2022-10-31T14:06:52.144Z,73.95
2022-10-31T14:09:54.387Z,73.31
2022-10-31T14:12:37.487Z,72.79
2022-10-31T14:15:28.740Z,73.76
2022-10-31T14:18:03.635Z,73.76
2022-10-31T14:20:41.880Z,74.39
2022-10-31T14:23:27.576Z,74.44
2022-10-31T14:25:54.107Z,75.48
2022-10-31T14:28:47.831Z,75.72
2022-10-31T14:31:42.087Z,74.93
2022-10-31T14:34:27.577Z,74.90
2022-10-31T14:36:59.935Z,75.85
2022-10-31T14:39:38.634Z,77.53
2022-10-31T14:42:30.195Z,79.94
2022-10-31T14:45:08.472Z,80.84
2022-10-31T14:47:53.430Z,81.02
2022-10-31T14:50:32.915Z,80.96
2022-10-31T14:53:02.909Z,81.05
2022-10-31T14:55:30.453Z,80.63
2022-10-31T14:58:02.363Z,80.69
2022-10-31T15:00:32.144Z,80.79
2022-10-31T15:03:25.839Z,82.86
2022-10-31T15:05:59.289Z,83.47
2022-10-31T15:08:39.984Z,83.95
2022-10-31T15:11:25.637Z,84.39
2022-10-31T15:13:53.766Z,84.04
2022-10-31T15:16:24.111Z,84.66
2022-10-31T15:18:59.901Z,85.38
2022-10-31T15:21:29.322Z,85.10
2022-10-31T15:23:58.908Z,85.98
2022-10-31T15:26:33.676Z,86.36
2022-10-31T15:29:02.998Z,85.33
2022-10-31T15:31:31.947Z,83.70
2022-10-31T15:34:05.198Z,84.15
2022-10-31T15:36:35.699Z,84.50
2022-10-31T15:39:04.165Z,84.81
2022-10-31T15:41:39.503Z,85.49
2022-10-31T15:44:16.093Z,86.58
2022-10-31T15:46:42.924Z,87.54
2022-10-31T15:49:40.972Z,88.12
2022-10-31T15:52:42.449Z,89.21
2022-10-31T15:55:11.787Z,89.00
2022-10-31T15:57:44.905Z,89.36
2022-10-31T16:00:24.140Z,90.36
2022-10-31T16:02:50.960Z,90.71
2022-10-31T16:05:20.236Z,90.89
2022-10-31T16:07:51.434Z,93.95
2022-10-31T16:10:26.913Z,94.92
2022-10-31T16:12:54.439Z,96.58
2022-10-31T16:15:22.411Z,96.84
2022-10-31T16:17:51.744Z,95.95
2022-10-31T16:20:28.492Z,95.48
2022-10-31T16:22:58.182Z,95.60
2022-10-31T16:25:29.661Z,95.68
2022-10-31T16:28:04.483Z,95.47
2022-10-31T16:30:45.456Z,96.14
2022-10-31T16:33:30.118Z,96.16
2022-10-31T16:36:09.491Z,95.93
2022-10-31T16:38:45.204Z,96.38
2022-10-31T16:41:11.748Z,96.91
2022-10-31T16:43:38.305Z,96.50
2022-10-31T16:46:04.950Z,95.69
2022-10-31T16:48:31.904Z,96.44
2022-10-31T16:50:58.417Z,97.12
2022-10-31T16:53:25.594Z,96.87
2022-10-31T16:55:56.666Z,96.20
2022-10-31T16:58:30.689Z,95.74
2022-10-31T17:00:58.031Z,95.73
2022-10-31T17:03:24.604Z,94.66
2022-10-31T17:05:51.519Z,94.87
2022-10-31T17:08:18.493Z,95.29
2022-10-31T17:10:48.148Z,95.54
2022-10-31T17:13:19.698Z,98.11
2022-10-31T17:15:53.341Z,98.03
2022-10-31T17:18:24.407Z,96.64
2022-10-31T17:20:59.940Z,97.28
2022-10-31T17:23:27.476Z,97.95
2022-10-31T17:25:54.159Z,98.82
2022-10-31T17:28:21.016Z,98.96
2022-10-31T17:30:48.075Z,98.95
2022-10-31T17:33:16.876Z,99.79
2022-10-31T17:35:45.084Z,98.83
2022-10-31T17:38:12.147Z,98.21
2022-10-31T17:40:40.362Z,98.52
2022-10-31T17:43:07.236Z,97.53
2022-10-31T17:45:33.750Z,97.57
2022-10-31T17:48:00.288Z,96.71
2022-10-31T17:50:27.567Z,96.60
2022-10-31T17:52:54.068Z,97.69
2022-10-31T17:55:21.091Z,97.21
2022-10-31T17:57:47.809Z,96.87
2022-10-31T18:00:17.701Z,96.73
2022-10-31T18:02:44.508Z,96.66
2022-10-31T18:05:11.555Z,96.24
2022-10-31T18:07:38.111Z,95.59
2022-10-31T18:10:05.702Z,95.23
2022-10-31T18:12:32.511Z,95.46
2022-10-31T18:14:59.253Z,96.21
2022-10-31T18:17:25.844Z,96.86
2022-10-31T18:19:52.379Z,97.09
2022-10-31T18:22:18.880Z,97.63
2022-10-31T18:24:45.415Z,98.15
2022-10-31T18:27:12.136Z,98.53
2022-10-31T18:29:38.626Z,99.01
2022-10-31T18:32:09.557Z,99.28
2022-10-31T18:34:36.825Z,98.67
2022-10-31T18:37:03.690Z,100.00
2022-10-31T18:39:30.289Z,99.31
2022-10-31T18:41:57.381Z,99.88
2022-10-31T18:44:24.196Z,100.00
2022-10-31T18:46:50.699Z,99.60
2022-10-31T18:49:22.608Z,99.94
2022-10-31T18:51:50.708Z,100.00
2022-10-31T18:54:17.703Z,100.00
2022-10-31T18:56:44.855Z,100.00
2022-10-31T18:59:11.932Z,100.00
2022-10-31T19:01:39.037Z,99.98
2022-10-31T19:04:06.123Z,100.00
2022-10-31T19:06:32.640Z,100.00
2022-10-31T19:09:01.148Z,100.00
2022-10-31T19:13:50.386Z,99.18
2022-10-31T19:16:18.023Z,98.18
2022-10-31T19:18:44.968Z,98.56
2022-10-31T19:21:17.892Z,98.39
2022-10-31T19:23:45.356Z,98.67
2022-10-31T19:26:12.789Z,98.17
2022-10-31T19:28:41.095Z,98.28
2022-10-31T19:31:09.066Z,98.58
2022-10-31T19:33:36.528Z,98.18
2022-10-31T19:36:09.705Z,98.52
2022-10-31T19:38:41.562Z,98.18
2022-10-31T19:41:11.604Z,98.35
2022-10-31T19:43:38.783Z,98.60
2022-10-31T19:46:06.357Z,98.35
2022-10-31T19:48:36.603Z,98.20
2022-10-31T19:51:06.384Z,98.00
2022-10-31T19:53:33.890Z,97.92
2022-10-31T19:56:01.219Z,97.82
2022-10-31T19:58:28.529Z,97.60
2022-10-31T20:00:55.737Z,97.49
2022-10-31T20:03:22.887Z,96.86
2022-10-31T20:05:50.642Z,97.80
2022-10-31T20:08:19.915Z,98.32
2022-10-31T20:10:57.219Z,97.75
2022-10-31T20:13:24.928Z,97.68
2022-10-31T20:15:52.348Z,97.87
2022-10-31T20:18:19.086Z,98.11
2022-10-31T20:20:45.822Z,98.19
2022-10-31T20:23:12.372Z,98.13
2022-10-31T20:25:47.325Z,99.32
2022-10-31T20:28:13.851Z,98.96
2022-10-31T20:30:40.351Z,98.89
2022-10-31T20:33:07.473Z,98.18
2022-10-31T20:35:38.900Z,98.94
2022-10-31T20:38:05.543Z,99.12
2022-10-31T20:40:33.089Z,99.96
2022-10-31T20:43:01.196Z,99.92
2022-10-31T20:45:28.684Z,100.00
2022-10-31T20:47:55.282Z,100.00
2022-10-31T20:50:22.271Z,99.83
2022-10-31T20:52:48.983Z,100.00
2022-10-31T20:55:16.388Z,100.00
2022-10-31T20:57:43.136Z,99.49
2022-10-31T21:00:14.049Z,99.94
2022-10-31T21:02:44.214Z,100.00
2022-10-31T21:05:12.404Z,100.00
2022-10-31T21:07:42.353Z,100.00
2022-10-31T21:10:14.834Z,99.94
2022-10-31T21:12:43.223Z,99.97
2022-10-31T21:15:11.337Z,99.28
2022-10-31T21:17:38.420Z,99.03
2022-10-31T21:20:07.279Z,100.00
2022-10-31T21:22:34.192Z,99.74
2022-10-31T21:25:01.005Z,99.85
2022-10-31T21:27:27.810Z,99.47
2022-10-31T21:29:54.313Z,99.30
2022-10-31T21:32:21.084Z,99.61
2022-10-31T21:34:50.090Z,99.16
2022-10-31T21:37:16.952Z,99.71
2022-10-31T21:39:48.135Z,99.28
2022-10-31T21:42:20.532Z,99.31
2022-10-31T21:44:48.928Z,99.91
2022-10-31T21:47:15.865Z,99.65
2022-10-31T21:49:42.540Z,99.86
2022-10-31T21:52:09.496Z,99.37
2022-10-31T21:54:37.342Z,99.27
2022-10-31T21:57:04.116Z,98.89
2022-10-31T21:59:31.238Z,99.25
2022-10-31T22:01:59.782Z,99.84
2022-10-31T22:04:27.242Z,99.42
2022-10-31T22:06:54.186Z,99.45
2022-10-31T22:09:20.928Z,99.37
2022-10-31T22:11:47.672Z,99.47
2022-10-31T22:14:15.086Z,98.98
2022-10-31T22:16:42.247Z,99.79
2022-10-31T22:19:11.895Z,99.29
2022-10-31T22:21:46.879Z,100.00
2022-10-31T22:24:14.535Z,99.53
2022-10-31T22:26:41.194Z,99.50
2022-10-31T22:29:12.278Z,99.80
2022-10-31T22:31:44.206Z,99.65
2022-10-31T22:34:11.803Z,99.40
2022-10-31T22:36:38.875Z,98.57
2022-10-31T22:39:06.179Z,98.30
2022-10-31T22:41:34.976Z,99.48
2022-10-31T22:44:03.052Z,99.40
2022-10-31T22:46:31.547Z,99.69
2022-10-31T22:49:04.608Z,99.85
2022-10-31T22:51:37.789Z,99.83
2022-10-31T22:54:05.565Z,100.00
2022-10-31T22:56:34.145Z,100.00
2022-10-31T22:59:01.536Z,99.93
2022-10-31T23:01:31.909Z,99.94
2022-10-31T23:03:59.117Z,100.00
2022-10-31T23:06:30.172Z,100.00
2022-10-31T23:08:57.471Z,99.84
2022-10-31T23:11:48.704Z,99.71
2022-10-31T23:14:20.763Z,99.49
2022-10-31T23:16:51.550Z,99.62
2022-10-31T23:19:22.859Z,99.54
2022-10-31T23:21:56.169Z,100.00
2022-10-31T23:24:29.110Z,100.00
2022-10-31T23:27:09.148Z,100.00
2022-10-31T23:29:50.431Z,100.00
2022-10-31T23:32:21.101Z,100.00
2022-10-31T23:34:50.455Z,99.78
2022-10-31T23:37:18.742Z,100.00
2022-10-31T23:39:45.780Z,100.00
2022-10-31T23:42:13.895Z,100.00
2022-10-31T23:44:40.692Z,100.00
2022-10-31T23:47:07.642Z,100.00
2022-10-31T23:49:34.701Z,100.00
2022-10-31T23:52:02.075Z,100.00
2022-10-31T23:54:28.736Z,100.00
2022-10-31T23:56:55.981Z,100.00
2022-10-31T23:59:22.919Z,100.00
